Flight Track Log - Related Links

Times and Time Zones

All times are in EDT time to prevent confusion due to time zone crossing. See the AAL1326 flight status page for this flight to view local times or setup timezone preferences in your user account.

Time Position Orientation Groundspeed Altitude Reporting Facility
EDT Latitude Longitude Course Direction KTS MPH feet Rate Location/Type
Thu 09:39:43 PM 41.9430 -87.9100 220° Southwest 176 203 2,000  Level FlightAware ADS-B
Thu 09:39:53 PM 41.9370 -87.9120 194° South 172 198 2,400 1,950 Climbing FlightAware ADS-B
Thu 09:40:23 PM 41.9120 -87.8910 148° Southeast 224 258 3,300 2,200 Climbing FlightAware ADS-B
Thu 09:40:53 PM 41.8880 -87.8590 135° Southeast 246 283 4,600 2,400 Climbing FlightAware ADS-B
Thu 09:41:08 PM 41.8770 -87.8440 135° Southeast 257 296 5,100 2,700 Climbing FlightAware ADS-B
Thu 09:41:33 PM 41.8600 -87.8090 123° Southeast 274 315 6,400 3,120 Climbing FlightAware ADS-B
Thu 09:41:58 PM 41.8530 -87.7720 104° East 288 331 7,700 3,273 Climbing FlightAware ADS-B
Thu 09:42:28 PM 41.8580 -87.7130 83° East 301 346 9,400 3,600 Climbing FlightAware ADS-B
Thu 09:43:13 PM 41.8690 -87.6290 80° East 297 342 12,200 3,035 Climbing FlightAware ADS-B
Thu 09:43:53 PM 41.8800 -87.5580 78° East 314 361 13,700 1,694 Climbing FlightAware ADS-B
Thu 09:44:38 PM 41.8920 -87.4610 81° East 366 421 14,600 1,553 Climbing FlightAware ADS-B
Thu 09:45:18 PM 41.9050 -87.3700 79° East 384 442 15,900 1,950 Climbing FlightAware ADS-B
Thu 09:45:58 PM 41.9180 -87.2750 80° East 400 460 17,200 1,906 Climbing FlightAware ADS-B
Thu 09:46:43 PM 41.9320 -87.1640 80° East 418 481 18,600 1,271 Climbing FlightAware ADS-B
Thu 09:47:23 PM 41.9450 -87.0610 80° East 420 483 19,000 635 Climbing FlightAware ADS-B
Thu 09:48:08 PM 41.9410 -86.9480 93° East 408 470 19,500 988 Climbing FlightAware ADS-B
Thu 09:48:48 PM 41.9290 -86.8420 99° East 421 484 20,400 1,275 Climbing FlightAware ADS-B
Thu 09:49:28 PM 41.9160 -86.7370 99° East 439 505 21,200 1,482 Climbing FlightAware ADS-B
Thu 09:50:13 PM 41.9020 -86.6170 99° East 450 518 22,500 1,835 Climbing FlightAware ADS-B
Thu 09:50:53 PM 41.8890 -86.5070 99° East 454 522 23,800 2,118 Climbing FlightAware ADS-B
Thu 09:51:38 PM 41.8740 -86.3820 99° East 450 518 25,500 2,188 Climbing FlightAware ADS-B
Thu 09:52:18 PM 41.8600 -86.2710 100° East 446 513 26,900 1,125 Climbing FlightAware ADS-B
Thu 09:52:58 PM 41.8460 -86.1600 100° East 445 512 27,000 71 Climbing FlightAware ADS-B
Thu 09:53:43 PM 41.8310 -86.0430 100° East 444 511 27,000  Level FlightAware ADS-B
Thu 09:54:23 PM 41.8180 -85.9320 99° East 439 505 27,000 1,200 Level FlightAware ADS-B
Thu 09:55:18 PM 41.8000 -85.7940 100° East 424 488 28,900 1,740 Climbing FlightAware ADS-B
Thu 09:56:03 PM 41.7850 -85.6750 100° East 428 493 29,900 1,200 Climbing FlightAware ADS-B
Thu 09:56:43 PM 41.7710 -85.5670 100° East 438 504 30,600 1,050 Climbing FlightAware ADS-B
Thu 09:57:23 PM 41.7570 -85.4590 100° East 445 512 31,300 1,200 Climbing FlightAware ADS-B
Thu 09:58:08 PM 41.7420 -85.3470 100° East 444 511 32,300 1,412 Climbing FlightAware ADS-B
Thu 09:58:48 PM 41.7260 -85.2270 100° East 443 510 33,300 1,350 Climbing FlightAware ADS-B
Thu 09:59:28 PM 41.7130 -85.1250 100° East 443 510 34,100 918 Climbing FlightAware ADS-B
Thu 10:00:13 PM 41.6960 -85.0010 100° East 453 521 34,600 568 Climbing FlightAware ADS-B
Thu 10:01:03 PM 41.6770 -84.8600 100° East 469 540 35,000 240 Climbing FlightAware ADS-B
Thu 10:01:53 PM 41.6640 -84.7210 97° East 484 557 35,000  Level FlightAware ADS-B
Thu 10:02:28 PM 41.6560 -84.6130 96° East 465 535 35,000  Level FlightAware ADS-B
Thu 10:02:48 PM 41.6370 -84.5670 119° Southeast 433 498 35,000  Level FlightAware ADS-B
Thu 10:03:13 PM 41.5990 -84.5230 139° Southeast 401 461 35,000  Level FlightAware ADS-B
Thu 10:03:58 PM 41.5270 -84.4750 153° Southeast 393 452 35,000  Level FlightAware ADS-B
Thu 10:04:38 PM 41.4600 -84.4290 153° Southeast 394 453 35,000  Level FlightAware ADS-B
Thu 10:05:23 PM 41.3870 -84.3790 153° Southeast 395 455 35,000  Level FlightAware ADS-B
Thu 10:06:03 PM 41.3210 -84.3340 153° Southeast 395 455 35,000  Level FlightAware ADS-B
Thu 10:06:43 PM 41.2550 -84.2900 153° Southeast 396 456 35,000  Level FlightAware ADS-B
Thu 10:07:28 PM 41.1810 -84.2400 153° Southeast 397 457 35,000  Level FlightAware ADS-B
Thu 10:08:08 PM 41.1190 -84.1980 153° Southeast 397 457 35,000  Level FlightAware ADS-B
Thu 10:08:48 PM 41.0530 -84.1540 153° Southeast 398 458 35,000  Level FlightAware ADS-B
Thu 10:09:33 PM 40.9770 -84.1030 153° Southeast 398 458 35,000  Level FlightAware ADS-B
Thu 10:10:13 PM 40.9110 -84.0580 153° Southeast 398 458 35,000  Level FlightAware ADS-B
Thu 10:10:58 PM 40.8380 -84.0100 154° Southeast 397 457 35,000  Level FlightAware ADS-B
Thu 10:11:38 PM 40.7720 -83.9660 153° Southeast 397 457 35,000  Level FlightAware ADS-B
Thu 10:12:18 PM 40.7090 -83.9240 153° Southeast 396 456 35,000  Level FlightAware ADS-B
Thu 10:13:03 PM 40.6360 -83.8760 153° Southeast 396 456 35,000  Level FlightAware ADS-B
Thu 10:13:43 PM 40.5690 -83.8310 153° Southeast 397 457 35,000  Level FlightAware ADS-B
Thu 10:14:23 PM 40.5020 -83.7880 154° Southeast 401 461 35,000  Level FlightAware ADS-B
Thu 10:15:08 PM 40.4270 -83.7390 154° Southeast 405 466 35,000  Level FlightAware ADS-B
Thu 10:15:48 PM 40.3600 -83.6940 153° Southeast 406 467 35,000  Level FlightAware ADS-B
Thu 10:16:33 PM 40.2860 -83.6460 154° Southeast 406 467 35,000  Level FlightAware ADS-B
Thu 10:17:13 PM 40.2170 -83.6010 154° Southeast 406 467 35,000  Level FlightAware ADS-B
Thu 10:17:58 PM 40.1430 -83.5530 154° Southeast 407 468 35,000  Level FlightAware ADS-B
Thu 10:18:38 PM 40.0740 -83.5080 153° Southeast 406 467 35,000  Level FlightAware ADS-B
Thu 10:19:13 PM 40.0200 -83.4730 154° Southeast 406 467 35,000  Level FlightAware ADS-B
Thu 10:20:13 PM 39.9190 -83.4070 153° Southeast 406 467 35,000  Level FlightAware ADS-B
Thu 10:20:58 PM 39.8390 -83.3560 154° Southeast 406 467 35,000  Level FlightAware ADS-B
Thu 10:21:38 PM 39.7710 -83.3130 154° Southeast 407 468 35,000  Level FlightAware ADS-B
Thu 10:22:18 PM 39.7040 -83.2700 154° Southeast 410 472 35,000  Level FlightAware ADS-B
Thu 10:23:03 PM 39.6270 -83.2200 153° Southeast 414 476 35,000  Level FlightAware ADS-B
Thu 10:23:43 PM 39.5580 -83.1770 154° Southeast 415 478 35,000  Level FlightAware ADS-B
Thu 10:24:28 PM 39.4820 -83.1280 154° Southeast 417 480 35,000  Level FlightAware ADS-B
Thu 10:25:08 PM 39.4130 -83.0840 154° Southeast 415 478 35,000  Level FlightAware ADS-B
Thu 10:25:53 PM 39.3340 -83.0340 154° Southeast 414 476 35,000  Level FlightAware ADS-B
Thu 10:26:33 PM 39.2640 -82.9900 154° Southeast 414 476 35,000  Level FlightAware ADS-B
Thu 10:27:18 PM 39.1880 -82.9420 154° Southeast 415 478 35,000  Level FlightAware ADS-B
Thu 10:27:58 PM 39.1200 -82.8990 154° Southeast 415 478 35,000  Level FlightAware ADS-B
Thu 10:28:38 PM 39.0510 -82.8560 154° Southeast 414 476 35,000  Level FlightAware ADS-B
Thu 10:29:18 PM 38.9790 -82.8110 154° Southeast 413 475 35,000  Level FlightAware ADS-B
Thu 10:30:03 PM 38.9040 -82.7640 154° Southeast 411 473 35,000  Level FlightAware ADS-B
Thu 10:30:43 PM 38.8360 -82.7210 154° Southeast 411 473 35,000  Level FlightAware ADS-B
Thu 10:31:43 PM 38.7390 -82.6790 161° South 403 464 35,000  Level FlightAware ADS-B
Thu 10:32:23 PM 38.6780 -82.6540 162° South 403 464 35,000  Level FlightAware ADS-B
Thu 10:33:03 PM 38.6180 -82.6280 161° South 403 464 35,000  Level FlightAware ADS-B
Thu 10:33:43 PM 38.5580 -82.6030 162° South 403 464 35,000  Level FlightAware ADS-B
Thu 10:34:33 PM 38.4820 -82.5720 162° South 403 464 35,000  Level FlightAware ADS-B
Thu 10:35:13 PM 38.4220 -82.5470 162° South 403 464 35,000  Level FlightAware ADS-B
Thu 10:35:53 PM 38.3620 -82.5220 162° South 403 464 35,000  Level FlightAware ADS-B
Thu 10:36:33 PM 38.3020 -82.4970 162° South 403 464 35,000  Level FlightAware ADS-B
Thu 10:36:43 PM 38.1834 -82.5696 206° Southwest 390 449 35,000  Level FlightAware ADS-B
Thu 10:37:13 PM 38.1284 -82.5580 171° South 391 450 35,000  Level FlightAware ADS-B
Thu 10:37:44 PM 38.0730 -82.5463 171° South 392 451 35,000  Level FlightAware ADS-B
Thu 10:38:14 PM 38.0187 -82.5348 171° South 393 452 35,000  Level FlightAware ADS-B
Thu 10:38:45 PM 37.9637 -82.5231 170° South 395 455 35,000  Level FlightAware ADS-B
Thu 10:39:17 PM 37.9052 -82.5107 171° South 394 453 35,000  Level FlightAware ADS-B
Thu 10:39:49 PM 37.8481 -82.4987 171° South 394 453 35,000  Level FlightAware ADS-B
Thu 10:40:20 PM 37.7923 -82.4868 170° South 393 452 35,000  Level FlightAware ADS-B
Thu 10:40:51 PM 37.7377 -82.4753 171° South 393 452 35,000  Level FlightAware ADS-B
Thu 10:41:22 PM 37.6824 -82.4639 171° South 393 452 35,000  Level FlightAware ADS-B
Thu 10:41:52 PM 37.6265 -82.4521 171° South 392 451 35,000  Level FlightAware ADS-B
Thu 10:42:44 PM 37.5351 -82.4330 171° South 392 451 35,000  Level FlightAware ADS-B
Thu 10:43:37 PM 37.4393 -82.4129 171° South 393 452 35,000  Level FlightAware ADS-B
Thu 10:44:10 PM 37.3801 -82.4006 171° South 393 452 35,000  Level FlightAware ADS-B
Thu 10:44:53 PM 37.3027 -82.3846 171° South 393 452 35,000  Level FlightAware ADS-B
Thu 10:45:25 PM 37.2461 -82.3727 170° South 394 453 35,000  Level FlightAware ADS-B
Thu 10:45:57 PM 37.1882 -82.3608 171° South 395 455 35,000  Level FlightAware ADS-B
Thu 10:46:28 PM 37.1319 -82.3491 171° South 400 460 35,000  Level FlightAware ADS-B
Thu 10:46:59 PM 37.0746 -82.3374 171° South 402 463 35,000  Level FlightAware ADS-B
Thu 10:47:31 PM 37.0156 -82.3252 171° South 402 463 35,000  Level FlightAware ADS-B
Thu 10:48:03 PM 36.9559 -82.3129 171° South 403 464 35,000  Level FlightAware ADS-B
Thu 10:48:36 PM 36.8956 -82.3005 171° South 403 464 35,000  Level FlightAware ADS-B
Thu 10:49:07 PM 36.8399 -82.2891 171° South 403 464 35,000  Level FlightAware ADS-B
Thu 10:49:37 PM 36.7841 -82.2776 171° South 404 465 35,000  Level FlightAware ADS-B
Thu 10:50:07 PM 36.7277 -82.2659 171° South 409 471 35,000  Level FlightAware ADS-B
Thu 10:50:37 PM 36.6713 -82.2543 171° South 409 471 35,000  Level FlightAware ADS-B
Thu 10:51:07 PM 36.6150 -82.2428 171° South 411 473 35,000  Level FlightAware ADS-B
Thu 10:51:37 PM 36.5584 -82.2314 171° South 413 475 35,000  Level FlightAware ADS-B
Thu 10:52:07 PM 36.5016 -82.2200 171° South 415 478 35,000  Level FlightAware ADS-B
Thu 10:52:37 PM 36.4445 -82.2086 171° South 418 481 35,000  Level FlightAware ADS-B
Thu 10:53:07 PM 36.3871 -82.1970 171° South 420 483 35,000  Level FlightAware ADS-B
Thu 10:53:38 PM 36.3280 -82.1850 171° South 422 486 35,000  Level FlightAware ADS-B
Thu 10:54:08 PM 36.2698 -82.1731 171° South 422 486 35,000  Level FlightAware ADS-B
Thu 10:54:42 PM 36.2041 -82.1597 171° South 423 487 35,000  Level FlightAware ADS-B
Thu 10:55:38 PM 36.0974 -82.1383 171° South 422 486 35,000  Level FlightAware ADS-B
Thu 10:56:09 PM 36.0393 -82.1263 171° South 411 473 35,000  Level FlightAware ADS-B
Thu 10:56:39 PM 35.9819 -82.1148 171° South 410 472 35,000  Level FlightAware ADS-B
Thu 10:57:10 PM 35.9244 -82.1033 171° South 408 470 35,000  Level FlightAware ADS-B
Thu 10:57:41 PM 35.8675 -82.0921 171° South 411 473 35,000  Level FlightAware ADS-B
Thu 10:58:12 PM 35.8084 -82.0804 171° South 414 476 35,000  Level FlightAware ADS-B
Thu 10:58:42 PM 35.7514 -82.0690 171° South 415 478 35,000  Level FlightAware ADS-B
Thu 10:59:12 PM 35.6939 -82.0575 171° South 416 479 35,000  Level FlightAware ADS-B
Thu 10:59:43 PM 35.6350 -82.0458 171° South 417 480 35,000  Level FlightAware ADS-B
Thu 11:00:13 PM 35.5774 -82.0343 171° South 418 481 35,000  Level FlightAware ADS-B
Thu 11:00:44 PM 35.5191 -82.0226 171° South 417 480 35,000  Level FlightAware ADS-B
Thu 11:01:14 PM 35.4614 -82.0112 171° South 418 481 35,000  Level FlightAware ADS-B
Thu 11:01:45 PM 35.4028 -81.9997 171° South 417 480 35,000  Level FlightAware ADS-B
Thu 11:02:15 PM 35.3448 -81.9882 171° South 417 480 35,000 261 Level FlightAware ADS-B
Thu 11:02:31 PM 35.3141 -81.9827 172° South 416 479 35,200 1,277 Climbing FlightAware ADS-B
Thu 11:03:02 PM 35.2556 -81.9765 175° South 407 468 36,000 1,452 Climbing FlightAware ADS-B
Thu 11:03:33 PM 35.1974 -81.9708 175° South 402 463 36,700 938 Climbing FlightAware ADS-B
Thu 11:04:06 PM 35.1371 -81.9650 176° South 404 465 37,000 281 Climbing FlightAware ADS-B
Thu 11:04:37 PM 35.0795 -81.9595 176° South 406 467 37,000  Level FlightAware ADS-B
Thu 11:05:06 PM 35.0246 -81.9542 175° South 407 468 37,000  Level FlightAware ADS-B
Thu 11:05:36 PM 34.9674 -81.9485 175° South 408 470 37,000  Level FlightAware ADS-B
Thu 11:06:06 PM 34.9104 -81.9425 175° South 414 476 37,000  Level FlightAware ADS-B
Thu 11:06:37 PM 34.8516 -81.9364 175° South 415 478 37,000  Level FlightAware ADS-B
Thu 11:07:07 PM 34.7940 -81.9307 175° South 412 474 37,000  Level FlightAware ADS-B
Thu 11:07:40 PM 34.7330 -81.9248 175° South 410 472 37,000  Level FlightAware ADS-B
Thu 11:08:10 PM 34.6764 -81.9193 175° South 410 472 37,000  Level FlightAware ADS-B
Thu 11:08:48 PM 34.6060 -81.9120 175° South 411 473 37,000  Level FlightAware ADS-B
Thu 11:09:14 PM 34.5545 -81.9071 176° South 410 472 37,000  Level FlightAware ADS-B
Thu 11:09:59 PM 34.4699 -81.8988 175° South 410 472 37,000  Level FlightAware ADS-B
Thu 11:10:30 PM 34.4103 -81.8929 175° South 411 473 37,000  Level FlightAware ADS-B
Thu 11:11:08 PM 34.3371 -81.8858 175° South 412 474 37,000  Level FlightAware ADS-B
Thu 11:11:38 PM 34.2830 -81.8800 175° South 415 478 37,000  Level FlightAware ADS-B
Thu 11:12:18 PM 34.2110 -81.8730 175° South 417 480 37,000  Level FlightAware ADS-B
Thu 11:13:03 PM 34.1200 -81.8650 176° South 418 481 37,000  Level FlightAware ADS-B
Thu 11:13:43 PM 34.0430 -81.8570 175° South 419 482 37,000  Level FlightAware ADS-B
Thu 11:14:23 PM 33.9650 -81.8490 175° South 420 483 37,000  Level FlightAware ADS-B
Thu 11:15:08 PM 33.8820 -81.8360 173° South 427 491 37,000  Level FlightAware ADS-B
Thu 11:15:48 PM 33.8060 -81.8150 167° South 435 501 37,000  Level FlightAware ADS-B
Thu 11:16:33 PM 33.7130 -81.7880 166° South 438 504 37,000  Level FlightAware ADS-B
Thu 11:17:13 PM 33.6380 -81.7660 166° South 439 505 37,000  Level FlightAware ADS-B
Thu 11:17:53 PM 33.5560 -81.7430 167° South 440 506 37,000  Level FlightAware ADS-B
Thu 11:18:38 PM 33.4670 -81.7180 167° South 441 507 37,000 -212 Level FlightAware ADS-B
Thu 11:19:18 PM 33.3890 -81.6960 167° South 440 506 36,700 -706 Descending FlightAware ADS-B
Thu 11:20:03 PM 33.2970 -81.6700 167° South 445 512 36,000 -494 Descending FlightAware ADS-B
Thu 11:20:43 PM 33.2220 -81.6480 166° South 444 511 36,000  Level FlightAware ADS-B
Thu 11:21:38 PM 33.1180 -81.6180 166° South 443 510 36,000  Level FlightAware ADS-B
Thu 11:22:18 PM 33.0360 -81.5960 167° South 441 507 36,000  Level FlightAware ADS-B
Thu 11:23:03 PM 32.9420 -81.5690 166° South 440 506 36,000  Level FlightAware ADS-B
Thu 11:23:43 PM 32.8650 -81.5480 167° South 439 505 36,000  Level FlightAware ADS-B
Thu 11:24:18 PM 32.8000 -81.5300 167° South 36,000  Level FlightAware ADS-B
Thu 11:25:23 PM 32.6720 -81.4930 166° South 439 505 36,000  Level FlightAware ADS-B
Thu 11:26:03 PM 32.6050 -81.4730 166° South 439 505 36,000  Level FlightAware ADS-B
Thu 11:26:43 PM 32.5380 -81.4540 167° South 439 505 36,000  Level FlightAware ADS-B
Thu 11:27:23 PM 32.4710 -81.4340 166° South 439 505 36,000  Level FlightAware ADS-B
Thu 11:28:13 PM 32.3870 -81.4090 166° South 439 505 36,000  Level FlightAware ADS-B
Thu 11:28:53 PM 32.3200 -81.3890 166° South 439 505 36,000  Level FlightAware ADS-B
Thu 11:29:33 PM 32.2530 -81.3690 166° South 439 505 36,000  Level FlightAware ADS-B
Thu 11:30:33 PM 32.0530 -81.3230 169° South 442 509 36,000  Level FlightAware ADS-B
Thu 11:31:13 PM 31.9670 -81.3000 167° South 441 507 36,000  Level FlightAware ADS-B
Thu 11:31:53 PM 31.8940 -81.2800 167° South 441 507 36,000  Level FlightAware ADS-B
Thu 11:32:33 PM 31.8200 -81.2590 166° South 440 506 36,000  Level FlightAware ADS-B
Thu 11:33:18 PM 31.7360 -81.2370 167° South 440 506 36,000  Level FlightAware ADS-B
Thu 11:33:58 PM 31.6690 -81.2180 166° South 440 506 36,000  Level FlightAware ADS-B
Thu 11:34:38 PM 31.6010 -81.2000 167° South 440 506 36,000  Level FlightAware ADS-B
Thu 11:35:18 PM 31.5340 -81.1820 167° South 440 506 36,000  Level FlightAware ADS-B
Thu 11:36:08 PM 31.4490 -81.1590 167° South 440 506 36,000  Level FlightAware ADS-B
Thu 11:36:48 PM 31.3820 -81.1410 167° South 440 506 36,000  Level FlightAware ADS-B
Thu 11:37:28 PM 31.3140 -81.1220 167° South 440 506 36,000  Level FlightAware ADS-B
Thu 11:38:08 PM 31.2470 -81.1040 167° South 440 506 36,000  Level FlightAware ADS-B
Thu 11:38:48 PM 31.1800 -81.0860 167° South 440 506 36,000  Level FlightAware ADS-B
Thu 11:39:38 PM 31.0950 -81.0630 167° South 440 506 36,000  Level FlightAware ADS-B
Thu 11:40:18 PM 31.0280 -81.0450 167° South 440 506 36,000  Level FlightAware ADS-B
Thu 11:40:58 PM 30.9600 -81.0270 167° South 440 506 36,000  Level FlightAware ADS-B
Thu 11:41:38 PM 30.8930 -81.0090 167° South 440 506 36,000  Level FlightAware ADS-B
Thu 11:42:18 PM 30.8260 -80.9910 167° South 440 506 36,000 -81 Level FlightAware ADS-B
Thu 11:42:52 PM 30.5589 -80.8419 167° South 459 528 35,900 -64 Descending Jacksonville Center
Thu 11:43:52 PM 30.4394 -80.8011 164° South 459 528 35,900  Level Jacksonville Center
Thu 11:44:52 PM 30.3156 -80.7606 164° South 459 528 35,900 32 Level Jacksonville Center
Thu 11:46:58 PM 30.0667 -80.6736 163° South 466 536 36,000 33 Climbing Miami Center
Thu 11:47:56 PM 29.9447 -80.6333 164° South 461 531 36,000  Level Miami Center
Thu 11:48:56 PM 29.8206 -80.5956 165° South 461 531 36,000  Level Miami Center
Thu 11:49:57 PM 29.6986 -80.5533 163° South 461 531 36,000 -50 Level Miami Center
Thu 11:50:56 PM 29.5725 -80.5108 164° South 461 531 35,900  Descending Miami Center
Thu 11:56:53 PM 28.8440 -80.2690 164° South 471 542 36,000 15 Climbing FlightAware ADS-B
Thu 11:57:33 PM 28.7730 -80.2440 163° South 471 542 36,000  Level FlightAware ADS-B
Thu 11:58:13 PM 28.7020 -80.2200 163° South 471 542 36,000  Level FlightAware ADS-B
Thu 11:58:53 PM 28.6310 -80.1950 163° South 471 542 36,000  Level FlightAware ADS-B
Thu 11:59:33 PM 28.5600 -80.1700 163° South 471 542 36,000  Level FlightAware ADS-B
Fri 12:00:13 AM 28.4890 -80.1460 163° South 471 542 36,000  Level FlightAware ADS-B
Fri 12:01:03 AM 28.4010 -80.1150 163° South 471 542 36,000  Level FlightAware ADS-B
Fri 12:01:33 AM 28.3480 -80.0960 162° South 471 542 36,000  Level FlightAware ADS-B
Fri 12:02:13 AM 28.2770 -80.0720 163° South 471 542 36,000  Level FlightAware ADS-B
Fri 12:03:03 AM 28.1880 -80.0410 163° South 471 542 36,000  Level FlightAware ADS-B
Fri 12:03:43 AM 28.1180 -80.0160 163° South 471 542 36,000  Level FlightAware ADS-B
Fri 12:04:23 AM 28.0470 -79.9920 163° South 471 542 36,000  Level FlightAware ADS-B
Fri 12:05:03 AM 27.9760 -79.9670 163° South 471 542 36,000  Level FlightAware ADS-B
Fri 12:05:43 AM 27.9050 -79.9430 163° South 471 542 36,000 -3,909 Level FlightAware ADS-B
Fri 12:07:58 AM 27.5240 -79.8440 167° South 442 509 24,600 -4,389 Descending FlightAware ADS-B
Fri 12:08:38 AM 27.4470 -79.8200 165° South 433 498 23,200 -2,589 Descending FlightAware ADS-B
Fri 12:09:33 AM 27.3390 -79.7860 164° South 435 501 20,500 -2,640 Descending FlightAware ADS-B
Fri 12:10:18 AM 27.2530 -79.7590 164° South 420 483 18,800 -1,976 Descending FlightAware ADS-B
Fri 12:10:58 AM 27.1800 -79.7370 165° South 396 456 17,700 -1,600 Descending FlightAware ADS-B
Fri 12:11:33 AM 27.1240 -79.7200 165° South 381 438 16,800 -1,800 Descending FlightAware ADS-B
Fri 12:12:28 AM 27.0290 -79.6910 165° South 367 422 15,000 -1,137 Descending FlightAware ADS-B
Fri 12:13:08 AM 26.9610 -79.6700 165° South 368 423 15,000  Level FlightAware ADS-B
Fri 12:13:53 AM 26.8870 -79.6750 183° South 362 417 15,000 -847 Level FlightAware ADS-B
Fri 12:14:33 AM 26.8220 -79.6980 198° South 363 418 13,800 -2,025 Descending FlightAware ADS-B
Fri 12:15:13 AM 26.7590 -79.7200 197° South 354 407 12,300 -1,680 Descending FlightAware ADS-B
Fri 12:16:13 AM 26.6700 -79.7510 197° South 332 382 11,000 -947 Descending FlightAware ADS-B
Fri 12:16:48 AM 26.6200 -79.7680 197° South 293 337 10,800 -750 Descending FlightAware ADS-B
Fri 12:17:33 AM 26.5660 -79.7870 197° South 279 321 10,000 -900 Descending FlightAware ADS-B
Fri 12:17:48 AM 26.5460 -79.7940 197° South 277 319 9,900 -933 Descending FlightAware ADS-B
Fri 12:18:18 AM 26.5090 -79.8070 197° South 276 318 9,300 -1,309 Descending FlightAware ADS-B
Fri 12:18:43 AM 26.4800 -79.8170 197° South 274 315 8,700 -1,418 Descending FlightAware ADS-B
Fri 12:19:13 AM 26.4430 -79.8300 197° South 269 310 8,000 -700 Descending FlightAware ADS-B
Fri 12:19:43 AM 26.4100 -79.8460 203° Southwest 264 304 8,000  Level FlightAware ADS-B
Fri 12:20:08 AM 26.3810 -79.8610 205° Southwest 262 302 8,000  Level FlightAware ADS-B
Fri 12:20:38 AM 26.3530 -79.8880 221° Southwest 265 305 8,000 -655 Level FlightAware ADS-B
Fri 12:21:03 AM 26.3310 -79.9090 221° Southwest 267 307 7,400 -1,527 Descending FlightAware ADS-B
Fri 12:21:33 AM 26.3020 -79.9360 220° Southwest 263 303 6,600 -1,418 Descending FlightAware ADS-B
Fri 12:21:58 AM 26.2790 -79.9580 221° Southwest 261 300 6,100 -655 Descending FlightAware ADS-B
Fri 12:22:28 AM 26.2520 -79.9850 222° Southwest 258 297 6,000 -100 Descending FlightAware ADS-B
Fri 12:22:58 AM 26.2240 -80.0110 220° Southwest 253 291 6,000  Level FlightAware ADS-B
Fri 12:23:28 AM 26.1970 -80.0370 221° Southwest 259 298 6,000  Level FlightAware ADS-B
Fri 12:23:53 AM 26.1780 -80.0630 231° Southwest 263 303 6,000  Level FlightAware ADS-B
Fri 12:24:23 AM 26.1670 -80.1000 252° West 265 305 6,000  Level FlightAware ADS-B
Fri 12:24:48 AM 26.1580 -80.1350 254° West 264 304 6,000 -873 Level FlightAware ADS-B
Fri 12:25:18 AM 26.1530 -80.1760 262° West 270 311 5,200 -1,527 Descending FlightAware ADS-B
Fri 12:25:43 AM 26.1530 -80.2080 270° West 270 311 4,600 -884 Descending FlightAware ADS-B
Fri 12:26:53 AM 26.1520 -80.2970 269° West 241 277 3,800 -1,071 Descending FlightAware ADS-B
Fri 12:28:03 AM 26.1330 -80.3700 254° West 187 215 2,100 -828 Descending FlightAware ADS-B
Fri 12:29:18 AM 26.0950 -80.3320 138° Southeast 173 199 1,800 -124 Descending FlightAware ADS-B
Fri 12:30:28 AM 26.0780 -80.2730 108° East 165 190 1,800 -141 Level FlightAware ADS-B
Fri 12:30:43 AM 26.0780 -80.2550 90° East 164 189 1,600 -764 Descending FlightAware ADS-B
Fri 12:31:23 AM 26.0770 -80.2270 92° East 144 166 1,100 -764 Descending FlightAware ADS-B
Fri 12:31:38 AM 26.0770 -80.2170 90° East 142 163 900 -764 Descending FlightAware ADS-B
Fri 12:32:18 AM 26.0770 -80.1870 90° East 146 168 400 -525 Descending FlightAware ADS-B
Fri 12:32:58 AM 26.0770 -80.1580 90° East 144 166 200 -300 Descending FlightAware ADS-B
Fri 12:39:00 AM 26.0667 -80.1500 103° East  Level FlightAware Approximate
Fri 12:40:00 AM 26.0726 -80.1527 103° East  Level Estimated

Login

Don't have an account? Register now (free) for customized features, flight alerts, and more!